sensor_id;sensor_type;location;lat;lon;timestamp;P1;durP1;ratioP1;P2;durP2;ratioP2
12625;SDS011;6378;42.684;23.372;2023-01-31T00:02:18;22.83;;;12.23;;
12625;SDS011;6378;42.684;23.372;2023-01-31T00:04:43;30.90;;;14.23;;
12625;SDS011;6378;42.684;23.372;2023-01-31T00:07:08;46.67;;;23.50;;
12625;SDS011;6378;42.684;23.372;2023-01-31T00:09:34;48.40;;;22.73;;
12625;SDS011;6378;42.684;23.372;2023-01-31T00:11:59;44.53;;;22.93;;
12625;SDS011;6378;42.684;23.372;2023-01-31T00:14:25;43.97;;;22.37;;
12625;SDS011;6378;42.684;23.372;2023-01-31T00:16:50;41.47;;;18.67;;
12625;SDS011;6378;42.684;23.372;2023-01-31T00:19:16;45.07;;;20.73;;
12625;SDS011;6378;42.684;23.372;2023-01-31T00:21:41;44.93;;;20.30;;
12625;SDS011;6378;42.684;23.372;2023-01-31T00:24:10;41.00;;;21.10;;
12625;SDS011;6378;42.684;23.372;2023-01-31T00:26:37;46.40;;;22.80;;
12625;SDS011;6378;42.684;23.372;2023-01-31T00:29:03;41.83;;;20.00;;
12625;SDS011;6378;42.684;23.372;2023-01-31T00:31:30;33.60;;;18.90;;
12625;SDS011;6378;42.684;23.372;2023-01-31T00:33:57;31.47;;;17.43;;
12625;SDS011;6378;42.684;23.372;2023-01-31T00:36:23;35.60;;;19.50;;
12625;SDS011;6378;42.684;23.372;2023-01-31T00:38:53;34.13;;;17.23;;
12625;SDS011;6378;42.684;23.372;2023-01-31T00:41:20;34.87;;;17.77;;
12625;SDS011;6378;42.684;23.372;2023-01-31T00:43:47;31.20;;;16.90;;
12625;SDS011;6378;42.684;23.372;2023-01-31T00:46:14;29.73;;;16.00;;
12625;SDS011;6378;42.684;23.372;2023-01-31T00:48:40;32.30;;;16.90;;
12625;SDS011;6378;42.684;23.372;2023-01-31T00:51:05;30.33;;;16.17;;
12625;SDS011;6378;42.684;23.372;2023-01-31T00:53:31;32.87;;;16.30;;
12625;SDS011;6378;42.684;23.372;2023-01-31T00:56:00;29.73;;;14.47;;
12625;SDS011;6378;42.684;23.372;2023-01-31T00:58:28;30.67;;;14.87;;
12625;SDS011;6378;42.684;23.372;2023-01-31T01:00:53;28.97;;;15.40;;
12625;SDS011;6378;42.684;23.372;2023-01-31T01:03:19;32.23;;;15.73;;
12625;SDS011;6378;42.684;23.372;2023-01-31T01:05:44;27.53;;;15.17;;
12625;SDS011;6378;42.684;23.372;2023-01-31T01:08:10;27.60;;;14.77;;
12625;SDS011;6378;42.684;23.372;2023-01-31T01:10:36;29.00;;;14.03;;
12625;SDS011;6378;42.684;23.372;2023-01-31T01:13:01;25.27;;;13.10;;
12625;SDS011;6378;42.684;23.372;2023-01-31T01:15:29;25.70;;;12.80;;
12625;SDS011;6378;42.684;23.372;2023-01-31T01:17:55;24.33;;;11.33;;
12625;SDS011;6378;42.684;23.372;2023-01-31T01:20:20;24.33;;;13.07;;
12625;SDS011;6378;42.684;23.372;2023-01-31T01:22:45;24.67;;;12.40;;
12625;SDS011;6378;42.684;23.372;2023-01-31T01:25:11;23.90;;;12.17;;
12625;SDS011;6378;42.684;23.372;2023-01-31T01:27:36;21.87;;;11.93;;
12625;SDS011;6378;42.684;23.372;2023-01-31T01:30:02;21.80;;;12.03;;
12625;SDS011;6378;42.684;23.372;2023-01-31T01:32:29;25.33;;;12.20;;
12625;SDS011;6378;42.684;23.372;2023-01-31T01:34:54;22.07;;;11.00;;
12625;SDS011;6378;42.684;23.372;2023-01-31T01:37:20;21.67;;;11.30;;
12625;SDS011;6378;42.684;23.372;2023-01-31T01:39:46;21.80;;;11.60;;
12625;SDS011;6378;42.684;23.372;2023-01-31T01:42:15;20.60;;;11.60;;
12625;SDS011;6378;42.684;23.372;2023-01-31T01:44:51;23.53;;;12.23;;
12625;SDS011;6378;42.684;23.372;2023-01-31T01:47:25;24.17;;;12.37;;
12625;SDS011;6378;42.684;23.372;2023-01-31T01:50:10;22.70;;;12.43;;
12625;SDS011;6378;42.684;23.372;2023-01-31T01:52:43;24.00;;;11.17;;
12625;SDS011;6378;42.684;23.372;2023-01-31T01:55:20;17.90;;;10.60;;
12625;SDS011;6378;42.684;23.372;2023-01-31T01:57:50;24.53;;;11.43;;
12625;SDS011;6378;42.684;23.372;2023-01-31T02:00:21;21.87;;;11.10;;
12625;SDS011;6378;42.684;23.372;2023-01-31T02:02:49;20.77;;;10.70;;
12625;SDS011;6378;42.684;23.372;2023-01-31T02:05:19;20.73;;;11.10;;
12625;SDS011;6378;42.684;23.372;2023-01-31T02:07:48;20.07;;;10.47;;
12625;SDS011;6378;42.684;23.372;2023-01-31T02:10:19;18.53;;;9.10;;
12625;SDS011;6378;42.684;23.372;2023-01-31T02:12:50;16.93;;;9.37;;
12625;SDS011;6378;42.684;23.372;2023-01-31T02:15:16;14.27;;;8.10;;
12625;SDS011;6378;42.684;23.372;2023-01-31T02:17:41;15.03;;;8.10;;
12625;SDS011;6378;42.684;23.372;2023-01-31T02:22:42;17.73;;;8.80;;
12625;SDS011;6378;42.684;23.372;2023-01-31T02:33:42;15.17;;;6.53;;
12625;SDS011;6378;42.684;23.372;2023-01-31T02:38:51;13.50;;;7.03;;
12625;SDS011;6378;42.684;23.372;2023-01-31T02:41:33;14.53;;;7.27;;
12625;SDS011;6378;42.684;23.372;2023-01-31T02:44:09;12.47;;;7.03;;
12625;SDS011;6378;42.684;23.372;2023-01-31T02:49:59;16.13;;;8.67;;
12625;SDS011;6378;42.684;23.372;2023-01-31T02:55:37;15.03;;;7.60;;
12625;SDS011;6378;42.684;23.372;2023-01-31T02:58:39;16.70;;;8.23;;
12625;SDS011;6378;42.684;23.372;2023-01-31T03:01:06;17.77;;;8.50;;
12625;SDS011;6378;42.684;23.372;2023-01-31T03:03:37;17.23;;;8.13;;
12625;SDS011;6378;42.684;23.372;2023-01-31T03:08:47;14.77;;;7.63;;
12625;SDS011;6378;42.684;23.372;2023-01-31T03:11:17;15.43;;;9.13;;
12625;SDS011;6378;42.684;23.372;2023-01-31T03:16:28;15.60;;;8.27;;
12625;SDS011;6378;42.684;23.372;2023-01-31T03:19:20;17.20;;;8.27;;
12625;SDS011;6378;42.684;23.372;2023-01-31T03:22:00;18.47;;;9.20;;
12625;SDS011;6378;42.684;23.372;2023-01-31T03:24:35;17.07;;;8.43;;
12625;SDS011;6378;42.684;23.372;2023-01-31T03:27:00;18.10;;;10.13;;
12625;SDS011;6378;42.684;23.372;2023-01-31T03:29:27;14.23;;;7.73;;
12625;SDS011;6378;42.684;23.372;2023-01-31T03:32:06;20.07;;;8.70;;
12625;SDS011;6378;42.684;23.372;2023-01-31T03:34:35;15.43;;;7.13;;
12625;SDS011;6378;42.684;23.372;2023-01-31T03:37:08;15.13;;;8.47;;
12625;SDS011;6378;42.684;23.372;2023-01-31T03:42:27;18.63;;;8.53;;
12625;SDS011;6378;42.684;23.372;2023-01-31T03:45:05;12.83;;;7.87;;
12625;SDS011;6378;42.684;23.372;2023-01-31T03:47:37;15.40;;;8.40;;
12625;SDS011;6378;42.684;23.372;2023-01-31T03:50:10;14.50;;;8.57;;
12625;SDS011;6378;42.684;23.372;2023-01-31T03:53:05;15.23;;;8.93;;
12625;SDS011;6378;42.684;23.372;2023-01-31T03:55:28;15.60;;;8.90;;
12625;SDS011;6378;42.684;23.372;2023-01-31T03:57:59;18.47;;;8.50;;
12625;SDS011;6378;42.684;23.372;2023-01-31T04:00:27;19.63;;;8.80;;
12625;SDS011;6378;42.684;23.372;2023-01-31T04:02:56;20.87;;;8.90;;
12625;SDS011;6378;42.684;23.372;2023-01-31T04:05:28;17.83;;;9.63;;
12625;SDS011;6378;42.684;23.372;2023-01-31T04:07:57;18.10;;;8.43;;
12625;SDS011;6378;42.684;23.372;2023-01-31T04:10:24;18.37;;;9.43;;
12625;SDS011;6378;42.684;23.372;2023-01-31T04:12:50;20.40;;;9.73;;
12625;SDS011;6378;42.684;23.372;2023-01-31T04:15:16;14.97;;;9.20;;
12625;SDS011;6378;42.684;23.372;2023-01-31T04:17:42;18.13;;;9.70;;
12625;SDS011;6378;42.684;23.372;2023-01-31T04:20:08;16.07;;;8.90;;
12625;SDS011;6378;42.684;23.372;2023-01-31T04:22:34;16.40;;;8.80;;
12625;SDS011;6378;42.684;23.372;2023-01-31T04:25:00;17.90;;;9.73;;
12625;SDS011;6378;42.684;23.372;2023-01-31T04:27:26;21.20;;;10.00;;
12625;SDS011;6378;42.684;23.372;2023-01-31T04:29:51;17.77;;;10.10;;
12625;SDS011;6378;42.684;23.372;2023-01-31T04:32:17;18.10;;;10.57;;
12625;SDS011;6378;42.684;23.372;2023-01-31T04:34:42;19.20;;;9.63;;
12625;SDS011;6378;42.684;23.372;2023-01-31T04:37:07;15.53;;;8.77;;
12625;SDS011;6378;42.684;23.372;2023-01-31T04:39:33;18.77;;;10.70;;
12625;SDS011;6378;42.684;23.372;2023-01-31T04:41:58;21.13;;;9.83;;
12625;SDS011;6378;42.684;23.372;2023-01-31T04:44:24;15.07;;;8.80;;
12625;SDS011;6378;42.684;23.372;2023-01-31T04:46:49;21.10;;;10.40;;
12625;SDS011;6378;42.684;23.372;2023-01-31T04:49:15;17.10;;;9.53;;
12625;SDS011;6378;42.684;23.372;2023-01-31T04:51:40;19.47;;;10.03;;
12625;SDS011;6378;42.684;23.372;2023-01-31T04:54:06;18.17;;;10.47;;
12625;SDS011;6378;42.684;23.372;2023-01-31T04:56:31;21.80;;;11.17;;
12625;SDS011;6378;42.684;23.372;2023-01-31T04:58:57;20.20;;;10.47;;
12625;SDS011;6378;42.684;23.372;2023-01-31T05:01:23;19.73;;;10.67;;
12625;SDS011;6378;42.684;23.372;2023-01-31T05:03:49;21.03;;;10.53;;
12625;SDS011;6378;42.684;23.372;2023-01-31T05:06:14;20.63;;;10.87;;
12625;SDS011;6378;42.684;23.372;2023-01-31T05:08:40;19.87;;;11.10;;
12625;SDS011;6378;42.684;23.372;2023-01-31T05:11:06;18.87;;;10.00;;
12625;SDS011;6378;42.684;23.372;2023-01-31T05:13:32;20.97;;;11.03;;
12625;SDS011;6378;42.684;23.372;2023-01-31T05:16:02;18.00;;;10.97;;
12625;SDS011;6378;42.684;23.372;2023-01-31T05:18:29;21.57;;;11.57;;
12625;SDS011;6378;42.684;23.372;2023-01-31T05:20:54;21.60;;;12.30;;
12625;SDS011;6378;42.684;23.372;2023-01-31T05:23:20;24.20;;;12.17;;
12625;SDS011;6378;42.684;23.372;2023-01-31T05:25:47;20.23;;;11.53;;
12625;SDS011;6378;42.684;23.372;2023-01-31T05:28:13;18.57;;;11.17;;
12625;SDS011;6378;42.684;23.372;2023-01-31T05:30:39;19.13;;;10.50;;
12625;SDS011;6378;42.684;23.372;2023-01-31T05:33:04;19.80;;;10.90;;
12625;SDS011;6378;42.684;23.372;2023-01-31T05:35:30;22.37;;;10.97;;
12625;SDS011;6378;42.684;23.372;2023-01-31T05:37:55;20.87;;;11.17;;
12625;SDS011;6378;42.684;23.372;2023-01-31T05:40:21;21.70;;;11.50;;
12625;SDS011;6378;42.684;23.372;2023-01-31T05:42:56;18.07;;;10.23;;
12625;SDS011;6378;42.684;23.372;2023-01-31T05:45:25;18.33;;;9.87;;
12625;SDS011;6378;42.684;23.372;2023-01-31T05:47:51;18.43;;;11.10;;
12625;SDS011;6378;42.684;23.372;2023-01-31T05:50:18;19.40;;;10.93;;
12625;SDS011;6378;42.684;23.372;2023-01-31T05:52:54;19.63;;;11.03;;
12625;SDS011;6378;42.684;23.372;2023-01-31T05:55:23;16.57;;;9.40;;
12625;SDS011;6378;42.684;23.372;2023-01-31T05:57:51;17.67;;;10.23;;
12625;SDS011;6378;42.684;23.372;2023-01-31T06:00:17;16.47;;;9.47;;
12625;SDS011;6378;42.684;23.372;2023-01-31T06:02:43;17.03;;;10.20;;
12625;SDS011;6378;42.684;23.372;2023-01-31T06:05:09;16.57;;;9.20;;
12625;SDS011;6378;42.684;23.372;2023-01-31T06:07:35;18.87;;;10.60;;
12625;SDS011;6378;42.684;23.372;2023-01-31T06:10:01;20.53;;;9.93;;
12625;SDS011;6378;42.684;23.372;2023-01-31T06:12:26;20.30;;;8.80;;
12625;SDS011;6378;42.684;23.372;2023-01-31T06:14:53;14.67;;;9.07;;
12625;SDS011;6378;42.684;23.372;2023-01-31T06:17:18;17.53;;;9.03;;
12625;SDS011;6378;42.684;23.372;2023-01-31T06:19:44;16.90;;;10.10;;
12625;SDS011;6378;42.684;23.372;2023-01-31T06:22:09;16.30;;;10.27;;
12625;SDS011;6378;42.684;23.372;2023-01-31T06:24:34;16.73;;;10.50;;
12625;SDS011;6378;42.684;23.372;2023-01-31T06:27:00;17.83;;;10.10;;
12625;SDS011;6378;42.684;23.372;2023-01-31T06:29:25;16.80;;;9.90;;
12625;SDS011;6378;42.684;23.372;2023-01-31T06:31:51;18.20;;;10.90;;
12625;SDS011;6378;42.684;23.372;2023-01-31T06:34:17;19.80;;;11.13;;
12625;SDS011;6378;42.684;23.372;2023-01-31T06:36:43;19.30;;;11.10;;
12625;SDS011;6378;42.684;23.372;2023-01-31T06:39:09;18.30;;;10.33;;
12625;SDS011;6378;42.684;23.372;2023-01-31T06:41:36;20.07;;;11.33;;
12625;SDS011;6378;42.684;23.372;2023-01-31T06:44:02;16.53;;;10.80;;
12625;SDS011;6378;42.684;23.372;2023-01-31T06:46:27;19.90;;;11.77;;
12625;SDS011;6378;42.684;23.372;2023-01-31T06:48:53;19.00;;;11.53;;
12625;SDS011;6378;42.684;23.372;2023-01-31T06:51:18;18.27;;;10.93;;
12625;SDS011;6378;42.684;23.372;2023-01-31T06:53:44;20.90;;;12.23;;
12625;SDS011;6378;42.684;23.372;2023-01-31T06:56:10;20.17;;;11.07;;
12625;SDS011;6378;42.684;23.372;2023-01-31T06:58:35;18.50;;;11.13;;
12625;SDS011;6378;42.684;23.372;2023-01-31T07:01:08;17.93;;;10.60;;
12625;SDS011;6378;42.684;23.372;2023-01-31T07:03:35;20.10;;;11.73;;
12625;SDS011;6378;42.684;23.372;2023-01-31T07:06:01;17.83;;;10.40;;
12625;SDS011;6378;42.684;23.372;2023-01-31T07:08:27;19.07;;;10.63;;
12625;SDS011;6378;42.684;23.372;2023-01-31T07:10:52;16.17;;;9.87;;
12625;SDS011;6378;42.684;23.372;2023-01-31T07:13:18;18.67;;;10.33;;
12625;SDS011;6378;42.684;23.372;2023-01-31T07:15:44;18.90;;;11.00;;
12625;SDS011;6378;42.684;23.372;2023-01-31T07:18:10;17.93;;;10.80;;
12625;SDS011;6378;42.684;23.372;2023-01-31T07:20:36;21.20;;;10.60;;
12625;SDS011;6378;42.684;23.372;2023-01-31T07:23:03;19.93;;;10.73;;
12625;SDS011;6378;42.684;23.372;2023-01-31T07:25:29;14.77;;;9.23;;
12625;SDS011;6378;42.684;23.372;2023-01-31T07:27:56;19.87;;;10.80;;
12625;SDS011;6378;42.684;23.372;2023-01-31T07:30:21;17.60;;;10.87;;
12625;SDS011;6378;42.684;23.372;2023-01-31T07:32:47;18.20;;;10.20;;
12625;SDS011;6378;42.684;23.372;2023-01-31T07:35:12;17.70;;;10.27;;
12625;SDS011;6378;42.684;23.372;2023-01-31T07:37:38;16.53;;;10.60;;
12625;SDS011;6378;42.684;23.372;2023-01-31T07:40:04;17.00;;;10.50;;
12625;SDS011;6378;42.684;23.372;2023-01-31T07:42:31;17.00;;;10.73;;
12625;SDS011;6378;42.684;23.372;2023-01-31T07:44:56;18.93;;;10.60;;
12625;SDS011;6378;42.684;23.372;2023-01-31T07:47:21;20.40;;;10.67;;
12625;SDS011;6378;42.684;23.372;2023-01-31T07:49:47;22.87;;;10.83;;
12625;SDS011;6378;42.684;23.372;2023-01-31T07:52:14;16.67;;;9.47;;
12625;SDS011;6378;42.684;23.372;2023-01-31T07:54:40;16.80;;;10.13;;
12625;SDS011;6378;42.684;23.372;2023-01-31T07:57:05;18.77;;;11.10;;
12625;SDS011;6378;42.684;23.372;2023-01-31T07:59:31;16.80;;;10.43;;
12625;SDS011;6378;42.684;23.372;2023-01-31T08:01:56;16.27;;;10.93;;
12625;SDS011;6378;42.684;23.372;2023-01-31T08:04:40;19.23;;;10.90;;
12625;SDS011;6378;42.684;23.372;2023-01-31T08:07:07;17.50;;;11.00;;
12625;SDS011;6378;42.684;23.372;2023-01-31T08:09:34;17.57;;;11.33;;
12625;SDS011;6378;42.684;23.372;2023-01-31T08:12:00;18.27;;;10.87;;
12625;SDS011;6378;42.684;23.372;2023-01-31T08:14:25;14.93;;;10.60;;
12625;SDS011;6378;42.684;23.372;2023-01-31T08:16:52;18.30;;;11.20;;
12625;SDS011;6378;42.684;23.372;2023-01-31T08:19:19;14.70;;;9.83;;
12625;SDS011;6378;42.684;23.372;2023-01-31T08:21:44;15.23;;;10.27;;
12625;SDS011;6378;42.684;23.372;2023-01-31T08:24:09;17.57;;;10.03;;
12625;SDS011;6378;42.684;23.372;2023-01-31T08:26:36;14.87;;;10.27;;
12625;SDS011;6378;42.684;23.372;2023-01-31T08:29:02;15.80;;;10.93;;
12625;SDS011;6378;42.684;23.372;2023-01-31T08:31:27;15.60;;;9.37;;
12625;SDS011;6378;42.684;23.372;2023-01-31T08:33:53;37.90;;;21.17;;
12625;SDS011;6378;42.684;23.372;2023-01-31T08:36:21;18.30;;;9.97;;
12625;SDS011;6378;42.684;23.372;2023-01-31T08:38:47;16.40;;;10.20;;
12625;SDS011;6378;42.684;23.372;2023-01-31T08:41:13;14.03;;;9.30;;
12625;SDS011;6378;42.684;23.372;2023-01-31T08:43:40;14.10;;;8.43;;
12625;SDS011;6378;42.684;23.372;2023-01-31T08:46:06;13.27;;;7.70;;
12625;SDS011;6378;42.684;23.372;2023-01-31T08:48:32;13.63;;;9.33;;
12625;SDS011;6378;42.684;23.372;2023-01-31T08:51:04;15.33;;;9.40;;
12625;SDS011;6378;42.684;23.372;2023-01-31T08:53:31;12.57;;;7.93;;
12625;SDS011;6378;42.684;23.372;2023-01-31T08:55:58;13.33;;;8.57;;
12625;SDS011;6378;42.684;23.372;2023-01-31T08:58:33;14.17;;;9.03;;
12625;SDS011;6378;42.684;23.372;2023-01-31T09:01:00;11.50;;;8.07;;
12625;SDS011;6378;42.684;23.372;2023-01-31T09:03:26;10.53;;;6.50;;
12625;SDS011;6378;42.684;23.372;2023-01-31T09:05:52;11.90;;;8.13;;
12625;SDS011;6378;42.684;23.372;2023-01-31T09:08:18;11.03;;;7.77;;
12625;SDS011;6378;42.684;23.372;2023-01-31T09:10:49;12.60;;;6.73;;
12625;SDS011;6378;42.684;23.372;2023-01-31T09:13:15;10.03;;;7.43;;
12625;SDS011;6378;42.684;23.372;2023-01-31T09:15:41;13.50;;;7.90;;
12625;SDS011;6378;42.684;23.372;2023-01-31T09:18:06;11.63;;;7.17;;
12625;SDS011;6378;42.684;23.372;2023-01-31T09:20:31;10.23;;;6.80;;
12625;SDS011;6378;42.684;23.372;2023-01-31T09:22:57;12.90;;;8.50;;
12625;SDS011;6378;42.684;23.372;2023-01-31T09:25:22;9.43;;;6.30;;
12625;SDS011;6378;42.684;23.372;2023-01-31T09:27:48;18.50;;;11.77;;
12625;SDS011;6378;42.684;23.372;2023-01-31T09:30:16;12.67;;;8.30;;
12625;SDS011;6378;42.684;23.372;2023-01-31T09:32:42;14.67;;;7.80;;
12625;SDS011;6378;42.684;23.372;2023-01-31T09:35:09;13.40;;;8.33;;
12625;SDS011;6378;42.684;23.372;2023-01-31T09:37:35;12.60;;;7.93;;
12625;SDS011;6378;42.684;23.372;2023-01-31T09:40:01;11.60;;;7.83;;
12625;SDS011;6378;42.684;23.372;2023-01-31T09:42:30;10.30;;;6.40;;
12625;SDS011;6378;42.684;23.372;2023-01-31T09:45:03;9.33;;;6.93;;
12625;SDS011;6378;42.684;23.372;2023-01-31T09:47:36;12.80;;;7.37;;
12625;SDS011;6378;42.684;23.372;2023-01-31T09:50:06;7.83;;;6.00;;
12625;SDS011;6378;42.684;23.372;2023-01-31T09:52:44;11.47;;;6.40;;
12625;SDS011;6378;42.684;23.372;2023-01-31T09:55:17;8.70;;;5.90;;
12625;SDS011;6378;42.684;23.372;2023-01-31T10:00:26;10.60;;;5.63;;
12625;SDS011;6378;42.684;23.372;2023-01-31T10:08:08;8.90;;;6.53;;
12625;SDS011;6378;42.684;23.372;2023-01-31T10:10:50;10.03;;;7.10;;
12625;SDS011;6378;42.684;23.372;2023-01-31T10:18:35;9.40;;;6.40;;
12625;SDS011;6378;42.684;23.372;2023-01-31T10:21:08;10.00;;;6.90;;
12625;SDS011;6378;42.684;23.372;2023-01-31T10:26:25;7.77;;;5.80;;
12625;SDS011;6378;42.684;23.372;2023-01-31T10:31:33;7.07;;;5.57;;
12625;SDS011;6378;42.684;23.372;2023-01-31T10:34:10;7.70;;;5.83;;
12625;SDS011;6378;42.684;23.372;2023-01-31T10:39:30;6.60;;;5.03;;
12625;SDS011;6378;42.684;23.372;2023-01-31T10:45:01;7.57;;;5.40;;
12625;SDS011;6378;42.684;23.372;2023-01-31T10:47:29;8.40;;;5.30;;
12625;SDS011;6378;42.684;23.372;2023-01-31T10:49:57;7.23;;;4.10;;
12625;SDS011;6378;42.684;23.372;2023-01-31T10:57:22;8.63;;;6.43;;
12625;SDS011;6378;42.684;23.372;2023-01-31T10:59:47;8.37;;;6.27;;
12625;SDS011;6378;42.684;23.372;2023-01-31T11:02:24;8.17;;;5.73;;
12625;SDS011;6378;42.684;23.372;2023-01-31T11:04:58;6.07;;;5.00;;
12625;SDS011;6378;42.684;23.372;2023-01-31T11:07:26;12.10;;;6.07;;
12625;SDS011;6378;42.684;23.372;2023-01-31T11:09:54;5.77;;;4.20;;
12625;SDS011;6378;42.684;23.372;2023-01-31T11:12:21;6.63;;;5.10;;
12625;SDS011;6378;42.684;23.372;2023-01-31T11:15:05;7.27;;;5.43;;
12625;SDS011;6378;42.684;23.372;2023-01-31T11:17:42;7.17;;;6.17;;
12625;SDS011;6378;42.684;23.372;2023-01-31T11:20:23;6.90;;;5.00;;
12625;SDS011;6378;42.684;23.372;2023-01-31T11:22:52;6.40;;;5.03;;
12625;SDS011;6378;42.684;23.372;2023-01-31T11:25:23;6.10;;;5.13;;
12625;SDS011;6378;42.684;23.372;2023-01-31T11:27:51;6.93;;;5.30;;
12625;SDS011;6378;42.684;23.372;2023-01-31T11:30:24;7.37;;;5.70;;
12625;SDS011;6378;42.684;23.372;2023-01-31T11:32:52;7.03;;;5.20;;
12625;SDS011;6378;42.684;23.372;2023-01-31T11:40:21;7.00;;;6.30;;
12625;SDS011;6378;42.684;23.372;2023-01-31T11:42:56;6.63;;;5.60;;
12625;SDS011;6378;42.684;23.372;2023-01-31T11:45:24;7.73;;;5.50;;
12625;SDS011;6378;42.684;23.372;2023-01-31T11:47:53;8.43;;;4.77;;
12625;SDS011;6378;42.684;23.372;2023-01-31T11:52:58;6.17;;;4.83;;
12625;SDS011;6378;42.684;23.372;2023-01-31T11:55:25;6.10;;;4.53;;
12625;SDS011;6378;42.684;23.372;2023-01-31T11:57:58;8.37;;;5.77;;
12625;SDS011;6378;42.684;23.372;2023-01-31T12:00:30;9.57;;;6.33;;
12625;SDS011;6378;42.684;23.372;2023-01-31T12:03:00;7.70;;;5.10;;
12625;SDS011;6378;42.684;23.372;2023-01-31T12:05:42;8.13;;;5.40;;
12625;SDS011;6378;42.684;23.372;2023-01-31T12:11:02;6.97;;;5.23;;
12625;SDS011;6378;42.684;23.372;2023-01-31T12:13:47;7.77;;;6.03;;
12625;SDS011;6378;42.684;23.372;2023-01-31T12:16:16;8.33;;;5.73;;
12625;SDS011;6378;42.684;23.372;2023-01-31T12:24:18;10.40;;;7.10;;
12625;SDS011;6378;42.684;23.372;2023-01-31T12:30:06;8.37;;;5.60;;
12625;SDS011;6378;42.684;23.372;2023-01-31T12:52:48;8.13;;;6.03;;
12625;SDS011;6378;42.684;23.372;2023-01-31T12:55:36;7.67;;;5.90;;
12625;SDS011;6378;42.684;23.372;2023-01-31T13:08:41;8.00;;;6.20;;
12625;SDS011;6378;42.684;23.372;2023-01-31T13:11:20;7.90;;;6.70;;
12625;SDS011;6378;42.684;23.372;2023-01-31T13:13:54;9.33;;;6.60;;
12625;SDS011;6378;42.684;23.372;2023-01-31T13:22:25;8.30;;;6.88;;
12625;SDS011;6378;42.684;23.372;2023-01-31T13:27:37;9.43;;;5.77;;
12625;SDS011;6378;42.684;23.372;2023-01-31T13:30:13;7.37;;;5.17;;
12625;SDS011;6378;42.684;23.372;2023-01-31T13:32:47;8.03;;;6.13;;
12625;SDS011;6378;42.684;23.372;2023-01-31T13:37:46;7.20;;;6.47;;
12625;SDS011;6378;42.684;23.372;2023-01-31T13:43:05;8.03;;;6.20;;
12625;SDS011;6378;42.684;23.372;2023-01-31T13:45:39;7.73;;;6.13;;
12625;SDS011;6378;42.684;23.372;2023-01-31T13:48:16;8.73;;;6.47;;
12625;SDS011;6378;42.684;23.372;2023-01-31T13:51:02;9.50;;;6.90;;
12625;SDS011;6378;42.684;23.372;2023-01-31T13:53:37;7.57;;;5.50;;
12625;SDS011;6378;42.684;23.372;2023-01-31T13:56:10;7.50;;;5.87;;
12625;SDS011;6378;42.684;23.372;2023-01-31T13:58:41;6.90;;;5.30;;
12625;SDS011;6378;42.684;23.372;2023-01-31T14:01:11;6.70;;;5.77;;
12625;SDS011;6378;42.684;23.372;2023-01-31T14:09:29;7.43;;;6.00;;
12625;SDS011;6378;42.684;23.372;2023-01-31T14:17:09;9.43;;;6.03;;
12625;SDS011;6378;42.684;23.372;2023-01-31T14:25:01;7.43;;;5.77;;
12625;SDS011;6378;42.684;23.372;2023-01-31T14:32:41;7.33;;;5.80;;
12625;SDS011;6378;42.684;23.372;2023-01-31T14:49:24;8.67;;;5.97;;
12625;SDS011;6378;42.684;23.372;2023-01-31T14:54:35;7.07;;;5.47;;
12625;SDS011;6378;42.684;23.372;2023-01-31T14:57:26;10.03;;;5.67;;
12625;SDS011;6378;42.684;23.372;2023-01-31T14:59:57;8.00;;;6.57;;
12625;SDS011;6378;42.684;23.372;2023-01-31T15:05:48;11.47;;;7.60;;
12625;SDS011;6378;42.684;23.372;2023-01-31T15:16:09;9.30;;;7.20;;
12625;SDS011;6378;42.684;23.372;2023-01-31T15:18:42;8.00;;;6.17;;
12625;SDS011;6378;42.684;23.372;2023-01-31T15:21:18;8.70;;;6.20;;
12625;SDS011;6378;42.684;23.372;2023-01-31T15:23:48;8.07;;;6.77;;
12625;SDS011;6378;42.684;23.372;2023-01-31T15:26:15;12.40;;;6.33;;
12625;SDS011;6378;42.684;23.372;2023-01-31T15:28:43;11.33;;;7.33;;
12625;SDS011;6378;42.684;23.372;2023-01-31T15:34:19;10.17;;;7.20;;
12625;SDS011;6378;42.684;23.372;2023-01-31T15:39:25;11.23;;;7.70;;
12625;SDS011;6378;42.684;23.372;2023-01-31T15:41:56;10.63;;;7.17;;
12625;SDS011;6378;42.684;23.372;2023-01-31T15:44:23;10.57;;;7.30;;
12625;SDS011;6378;42.684;23.372;2023-01-31T15:46:51;9.27;;;6.30;;
12625;SDS011;6378;42.684;23.372;2023-01-31T15:49:40;11.40;;;7.03;;
12625;SDS011;6378;42.684;23.372;2023-01-31T15:52:09;10.27;;;6.43;;
12625;SDS011;6378;42.684;23.372;2023-01-31T15:54:38;11.23;;;7.50;;
12625;SDS011;6378;42.684;23.372;2023-01-31T15:57:04;8.67;;;6.83;;
12625;SDS011;6378;42.684;23.372;2023-01-31T15:59:39;12.43;;;8.40;;
12625;SDS011;6378;42.684;23.372;2023-01-31T16:02:17;11.97;;;8.27;;
12625;SDS011;6378;42.684;23.372;2023-01-31T16:04:46;13.13;;;8.67;;
12625;SDS011;6378;42.684;23.372;2023-01-31T16:07:19;11.60;;;7.90;;
12625;SDS011;6378;42.684;23.372;2023-01-31T16:09:47;14.57;;;8.60;;
12625;SDS011;6378;42.684;23.372;2023-01-31T16:12:13;11.50;;;7.93;;
12625;SDS011;6378;42.684;23.372;2023-01-31T16:14:41;9.67;;;7.53;;
12625;SDS011;6378;42.684;23.372;2023-01-31T16:17:10;9.57;;;7.53;;
12625;SDS011;6378;42.684;23.372;2023-01-31T16:19:36;9.23;;;7.20;;
12625;SDS011;6378;42.684;23.372;2023-01-31T16:22:02;10.57;;;8.10;;
12625;SDS011;6378;42.684;23.372;2023-01-31T16:24:50;9.27;;;7.27;;
12625;SDS011;6378;42.684;23.372;2023-01-31T16:27:20;11.27;;;7.23;;
12625;SDS011;6378;42.684;23.372;2023-01-31T16:29:48;10.97;;;7.33;;
12625;SDS011;6378;42.684;23.372;2023-01-31T16:32:20;9.27;;;6.83;;
12625;SDS011;6378;42.684;23.372;2023-01-31T16:37:42;8.83;;;6.93;;
12625;SDS011;6378;42.684;23.372;2023-01-31T16:45:54;10.70;;;7.20;;
12625;SDS011;6378;42.684;23.372;2023-01-31T16:48:28;9.33;;;7.27;;
12625;SDS011;6378;42.684;23.372;2023-01-31T16:50:58;10.27;;;7.27;;
12625;SDS011;6378;42.684;23.372;2023-01-31T16:53:44;9.83;;;6.53;;
12625;SDS011;6378;42.684;23.372;2023-01-31T16:58:51;9.63;;;7.23;;
12625;SDS011;6378;42.684;23.372;2023-01-31T17:01:20;9.20;;;7.03;;
12625;SDS011;6378;42.684;23.372;2023-01-31T17:03:48;9.03;;;6.60;;
12625;SDS011;6378;42.684;23.372;2023-01-31T17:06:30;9.33;;;6.33;;
12625;SDS011;6378;42.684;23.372;2023-01-31T17:08:56;8.80;;;6.27;;
12625;SDS011;6378;42.684;23.372;2023-01-31T17:11:22;8.07;;;6.20;;
12625;SDS011;6378;42.684;23.372;2023-01-31T17:13:47;12.97;;;6.60;;
12625;SDS011;6378;42.684;23.372;2023-01-31T17:16:14;11.40;;;8.20;;
12625;SDS011;6378;42.684;23.372;2023-01-31T17:18:48;10.37;;;6.83;;
12625;SDS011;6378;42.684;23.372;2023-01-31T17:21:16;10.33;;;6.90;;
12625;SDS011;6378;42.684;23.372;2023-01-31T17:23:42;11.00;;;6.83;;
12625;SDS011;6378;42.684;23.372;2023-01-31T17:26:14;9.60;;;6.20;;
12625;SDS011;6378;42.684;23.372;2023-01-31T17:28:44;10.60;;;7.00;;
12625;SDS011;6378;42.684;23.372;2023-01-31T17:31:14;9.83;;;6.53;;
12625;SDS011;6378;42.684;23.372;2023-01-31T17:33:43;10.33;;;6.93;;
12625;SDS011;6378;42.684;23.372;2023-01-31T17:36:08;10.90;;;7.20;;
12625;SDS011;6378;42.684;23.372;2023-01-31T17:38:34;9.50;;;6.03;;
12625;SDS011;6378;42.684;23.372;2023-01-31T17:41:00;8.43;;;6.70;;
12625;SDS011;6378;42.684;23.372;2023-01-31T17:43:25;12.90;;;7.70;;
12625;SDS011;6378;42.684;23.372;2023-01-31T17:45:51;9.10;;;6.77;;
12625;SDS011;6378;42.684;23.372;2023-01-31T17:48:16;8.70;;;6.70;;
12625;SDS011;6378;42.684;23.372;2023-01-31T17:53:33;11.57;;;7.40;;
12625;SDS011;6378;42.684;23.372;2023-01-31T17:56:02;9.27;;;6.73;;